sensor_id;sensor_type;location;lat;lon;timestamp;P1;durP1;ratioP1;P2;durP2;ratioP2
75628;SDS011;64213;46.452;16.994;2023-12-22T00:01:11;11.23;;;4.30;;
75628;SDS011;64213;46.452;16.994;2023-12-22T00:04:18;9.23;;;2.75;;
75628;SDS011;64213;46.452;16.994;2023-12-22T00:07:23;10.37;;;3.50;;
75628;SDS011;64213;46.452;16.994;2023-12-22T00:10:26;10.70;;;3.90;;
75628;SDS011;64213;46.452;16.994;2023-12-22T00:13:31;11.65;;;3.67;;
75628;SDS011;64213;46.452;16.994;2023-12-22T00:16:37;13.20;;;4.20;;
75628;SDS011;64213;46.452;16.994;2023-12-22T00:19:42;10.68;;;3.67;;
75628;SDS011;64213;46.452;16.994;2023-12-22T00:22:47;10.50;;;4.30;;
75628;SDS011;64213;46.452;16.994;2023-12-22T00:25:51;12.83;;;4.80;;
75628;SDS011;64213;46.452;16.994;2023-12-22T00:28:55;13.32;;;4.60;;
75628;SDS011;64213;46.452;16.994;2023-12-22T00:31:59;14.15;;;5.10;;
75628;SDS011;64213;46.452;16.994;2023-12-22T00:35:04;12.85;;;4.68;;
75628;SDS011;64213;46.452;16.994;2023-12-22T00:38:09;12.40;;;4.70;;
75628;SDS011;64213;46.452;16.994;2023-12-22T00:41:13;13.40;;;5.60;;
75628;SDS011;64213;46.452;16.994;2023-12-22T00:44:17;10.52;;;4.35;;
75628;SDS011;64213;46.452;16.994;2023-12-22T00:47:21;9.50;;;3.45;;
75628;SDS011;64213;46.452;16.994;2023-12-22T00:50:27;9.43;;;3.35;;
75628;SDS011;64213;46.452;16.994;2023-12-22T00:53:30;12.10;;;4.97;;
75628;SDS011;64213;46.452;16.994;2023-12-22T00:56:34;11.37;;;3.87;;
75628;SDS011;64213;46.452;16.994;2023-12-22T00:59:38;8.57;;;2.72;;
75628;SDS011;64213;46.452;16.994;2023-12-22T01:02:48;8.18;;;2.85;;
75628;SDS011;64213;46.452;16.994;2023-12-22T01:05:52;11.07;;;3.62;;
75628;SDS011;64213;46.452;16.994;2023-12-22T01:08:57;10.17;;;3.10;;
75628;SDS011;64213;46.452;16.994;2023-12-22T01:12:01;7.50;;;1.90;;
75628;SDS011;64213;46.452;16.994;2023-12-22T01:15:09;10.88;;;3.20;;
75628;SDS011;64213;46.452;16.994;2023-12-22T01:18:14;8.23;;;2.67;;
75628;SDS011;64213;46.452;16.994;2023-12-22T01:21:18;9.93;;;2.83;;
75628;SDS011;64213;46.452;16.994;2023-12-22T01:24:23;10.67;;;2.97;;
75628;SDS011;64213;46.452;16.994;2023-12-22T01:27:27;7.17;;;2.40;;
75628;SDS011;64213;46.452;16.994;2023-12-22T01:30:31;10.18;;;3.15;;
75628;SDS011;64213;46.452;16.994;2023-12-22T01:33:36;10.68;;;3.00;;
75628;SDS011;64213;46.452;16.994;2023-12-22T01:36:40;11.60;;;3.55;;
75628;SDS011;64213;46.452;16.994;2023-12-22T01:39:42;11.10;;;3.67;;
75628;SDS011;64213;46.452;16.994;2023-12-22T01:42:45;10.50;;;3.33;;
75628;SDS011;64213;46.452;16.994;2023-12-22T01:45:48;8.45;;;2.78;;
75628;SDS011;64213;46.452;16.994;2023-12-22T01:48:54;9.10;;;2.90;;
75628;SDS011;64213;46.452;16.994;2023-12-22T01:51:56;9.27;;;3.30;;
75628;SDS011;64213;46.452;16.994;2023-12-22T01:54:59;9.83;;;2.83;;
75628;SDS011;64213;46.452;16.994;2023-12-22T01:58:01;10.20;;;2.73;;
75628;SDS011;64213;46.452;16.994;2023-12-22T02:01:03;11.68;;;3.58;;
75628;SDS011;64213;46.452;16.994;2023-12-22T02:04:06;8.23;;;2.65;;
75628;SDS011;64213;46.452;16.994;2023-12-22T02:07:09;9.82;;;2.72;;
75628;SDS011;64213;46.452;16.994;2023-12-22T02:10:12;9.43;;;2.83;;
75628;SDS011;64213;46.452;16.994;2023-12-22T02:13:15;8.77;;;2.40;;
75628;SDS011;64213;46.452;16.994;2023-12-22T02:16:22;8.00;;;2.33;;
75628;SDS011;64213;46.452;16.994;2023-12-22T02:19:46;10.80;;;2.60;;
75628;SDS011;64213;46.452;16.994;2023-12-22T02:22:53;7.25;;;1.92;;
75628;SDS011;64213;46.452;16.994;2023-12-22T02:25:57;6.93;;;1.83;;
75628;SDS011;64213;46.452;16.994;2023-12-22T02:29:08;5.80;;;1.33;;
75628;SDS011;64213;46.452;16.994;2023-12-22T02:32:14;7.93;;;1.80;;
75628;SDS011;64213;46.452;16.994;2023-12-22T02:35:25;7.18;;;1.67;;
75628;SDS011;64213;46.452;16.994;2023-12-22T02:38:30;6.30;;;1.40;;
75628;SDS011;64213;46.452;16.994;2023-12-22T02:41:33;4.87;;;1.10;;
75628;SDS011;64213;46.452;16.994;2023-12-22T02:44:37;5.97;;;1.60;;
75628;SDS011;64213;46.452;16.994;2023-12-22T02:47:40;6.55;;;1.48;;
75628;SDS011;64213;46.452;16.994;2023-12-22T02:50:42;6.85;;;1.67;;
75628;SDS011;64213;46.452;16.994;2023-12-22T02:53:44;6.65;;;1.67;;
75628;SDS011;64213;46.452;16.994;2023-12-22T02:56:47;8.00;;;2.00;;
75628;SDS011;64213;46.452;16.994;2023-12-22T02:59:49;7.80;;;2.10;;
75628;SDS011;64213;46.452;16.994;2023-12-22T03:02:52;6.85;;;1.85;;
75628;SDS011;64213;46.452;16.994;2023-12-22T03:05:54;7.68;;;1.62;;
75628;SDS011;64213;46.452;16.994;2023-12-22T03:08:56;7.60;;;2.10;;
75628;SDS011;64213;46.452;16.994;2023-12-22T03:11:59;7.77;;;2.27;;
75628;SDS011;64213;46.452;16.994;2023-12-22T03:15:04;7.47;;;2.37;;
75628;SDS011;64213;46.452;16.994;2023-12-22T03:18:06;7.80;;;1.92;;
75628;SDS011;64213;46.452;16.994;2023-12-22T03:21:15;9.68;;;2.40;;
75628;SDS011;64213;46.452;16.994;2023-12-22T03:27:38;9.17;;;2.20;;
75628;SDS011;64213;46.452;16.994;2023-12-22T03:30:41;8.10;;;2.27;;
75628;SDS011;64213;46.452;16.994;2023-12-22T03:33:43;10.80;;;2.50;;
75628;SDS011;64213;46.452;16.994;2023-12-22T03:36:45;8.07;;;2.17;;
75628;SDS011;64213;46.452;16.994;2023-12-22T03:39:51;9.48;;;2.28;;
75628;SDS011;64213;46.452;16.994;2023-12-22T03:42:53;7.27;;;1.83;;
75628;SDS011;64213;46.452;16.994;2023-12-22T03:45:56;8.50;;;2.60;;
75628;SDS011;64213;46.452;16.994;2023-12-22T03:48:58;8.02;;;2.42;;
75628;SDS011;64213;46.452;16.994;2023-12-22T03:52:01;8.50;;;2.30;;
75628;SDS011;64213;46.452;16.994;2023-12-22T03:55:03;8.18;;;2.65;;
75628;SDS011;64213;46.452;16.994;2023-12-22T03:58:06;9.47;;;2.50;;
75628;SDS011;64213;46.452;16.994;2023-12-22T04:01:13;9.50;;;3.07;;
75628;SDS011;64213;46.452;16.994;2023-12-22T04:04:16;8.32;;;2.33;;
75628;SDS011;64213;46.452;16.994;2023-12-22T04:07:18;8.98;;;2.58;;
75628;SDS011;64213;46.452;16.994;2023-12-22T04:10:21;8.85;;;2.65;;
75628;SDS011;64213;46.452;16.994;2023-12-22T04:13:23;9.83;;;2.70;;
75628;SDS011;64213;46.452;16.994;2023-12-22T04:16:26;9.20;;;2.83;;
75628;SDS011;64213;46.452;16.994;2023-12-22T04:19:28;12.10;;;2.78;;
75628;SDS011;64213;46.452;16.994;2023-12-22T04:22:30;9.05;;;3.10;;
75628;SDS011;64213;46.452;16.994;2023-12-22T04:25:33;9.82;;;3.37;;
75628;SDS011;64213;46.452;16.994;2023-12-22T04:28:35;9.00;;;2.57;;
75628;SDS011;64213;46.452;16.994;2023-12-22T04:31:38;9.47;;;2.20;;
75628;SDS011;64213;46.452;16.994;2023-12-22T04:34:40;8.95;;;2.55;;
75628;SDS011;64213;46.452;16.994;2023-12-22T04:37:42;8.85;;;3.10;;
75628;SDS011;64213;46.452;16.994;2023-12-22T04:40:45;9.38;;;2.50;;
75628;SDS011;64213;46.452;16.994;2023-12-22T04:43:47;11.13;;;4.20;;
75628;SDS011;64213;46.452;16.994;2023-12-22T04:46:49;9.53;;;3.00;;
75628;SDS011;64213;46.452;16.994;2023-12-22T04:49:52;10.40;;;3.40;;
75628;SDS011;64213;46.452;16.994;2023-12-22T04:52:55;13.00;;;5.37;;
75628;SDS011;64213;46.452;16.994;2023-12-22T04:55:58;11.18;;;4.15;;
75628;SDS011;64213;46.452;16.994;2023-12-22T04:59:01;11.40;;;4.00;;
75628;SDS011;64213;46.452;16.994;2023-12-22T05:02:03;10.43;;;4.10;;
75628;SDS011;64213;46.452;16.994;2023-12-22T05:05:06;10.63;;;2.97;;
75628;SDS011;64213;46.452;16.994;2023-12-22T05:08:10;8.70;;;2.58;;
75628;SDS011;64213;46.452;16.994;2023-12-22T05:11:13;7.40;;;2.33;;
75628;SDS011;64213;46.452;16.994;2023-12-22T05:14:15;7.60;;;2.10;;
75628;SDS011;64213;46.452;16.994;2023-12-22T05:17:18;7.80;;;2.03;;
75628;SDS011;64213;46.452;16.994;2023-12-22T05:20:20;9.13;;;2.37;;
75628;SDS011;64213;46.452;16.994;2023-12-22T05:23:22;8.10;;;2.60;;
75628;SDS011;64213;46.452;16.994;2023-12-22T05:26:24;7.45;;;2.08;;
75628;SDS011;64213;46.452;16.994;2023-12-22T05:29:30;8.70;;;2.37;;
75628;SDS011;64213;46.452;16.994;2023-12-22T05:32:32;8.00;;;1.60;;
75628;SDS011;64213;46.452;16.994;2023-12-22T05:35:35;9.25;;;2.85;;
75628;SDS011;64213;46.452;16.994;2023-12-22T05:38:41;10.80;;;2.90;;
75628;SDS011;64213;46.452;16.994;2023-12-22T05:41:44;10.82;;;3.37;;
75628;SDS011;64213;46.452;16.994;2023-12-22T05:44:46;11.93;;;3.30;;
75628;SDS011;64213;46.452;16.994;2023-12-22T05:47:51;10.73;;;3.07;;
75628;SDS011;64213;46.452;16.994;2023-12-22T05:50:57;8.75;;;2.37;;
75628;SDS011;64213;46.452;16.994;2023-12-22T05:54:00;7.95;;;2.60;;
75628;SDS011;64213;46.452;16.994;2023-12-22T05:57:02;9.98;;;2.90;;
75628;SDS011;64213;46.452;16.994;2023-12-22T06:00:09;9.47;;;2.13;;
75628;SDS011;64213;46.452;16.994;2023-12-22T06:03:13;7.80;;;2.40;;
75628;SDS011;64213;46.452;16.994;2023-12-22T06:06:16;8.88;;;2.40;;
75628;SDS011;64213;46.452;16.994;2023-12-22T06:09:18;8.00;;;2.55;;
75628;SDS011;64213;46.452;16.994;2023-12-22T06:12:22;7.60;;;2.22;;
75628;SDS011;64213;46.452;16.994;2023-12-22T06:15:25;7.43;;;1.67;;
75628;SDS011;64213;46.452;16.994;2023-12-22T06:18:27;4.27;;;0.90;;
75628;SDS011;64213;46.452;16.994;2023-12-22T06:21:29;7.15;;;1.80;;
75628;SDS011;64213;46.452;16.994;2023-12-22T06:24:32;6.15;;;1.67;;
75628;SDS011;64213;46.452;16.994;2023-12-22T06:27:36;7.95;;;2.08;;
75628;SDS011;64213;46.452;16.994;2023-12-22T06:30:39;8.73;;;1.70;;
75628;SDS011;64213;46.452;16.994;2023-12-22T06:33:41;6.90;;;1.80;;
75628;SDS011;64213;46.452;16.994;2023-12-22T06:36:44;7.43;;;1.70;;
75628;SDS011;64213;46.452;16.994;2023-12-22T06:39:46;8.18;;;1.85;;
75628;SDS011;64213;46.452;16.994;2023-12-22T06:42:49;9.18;;;1.95;;
75628;SDS011;64213;46.452;16.994;2023-12-22T06:45:51;6.53;;;1.60;;
75628;SDS011;64213;46.452;16.994;2023-12-22T06:48:57;8.50;;;2.00;;
75628;SDS011;64213;46.452;16.994;2023-12-22T06:52:00;8.73;;;1.90;;
75628;SDS011;64213;46.452;16.994;2023-12-22T06:55:03;6.97;;;1.73;;
75628;SDS011;64213;46.452;16.994;2023-12-22T06:58:05;7.30;;;1.90;;
75628;SDS011;64213;46.452;16.994;2023-12-22T07:01:08;7.97;;;1.70;;
75628;SDS011;64213;46.452;16.994;2023-12-22T07:04:11;9.77;;;3.60;;
75628;SDS011;64213;46.452;16.994;2023-12-22T07:07:13;9.52;;;3.53;;
75628;SDS011;64213;46.452;16.994;2023-12-22T07:10:15;9.35;;;2.65;;
75628;SDS011;64213;46.452;16.994;2023-12-22T07:13:18;9.80;;;2.92;;
75628;SDS011;64213;46.452;16.994;2023-12-22T07:16:20;7.67;;;2.17;;
75628;SDS011;64213;46.452;16.994;2023-12-22T07:19:23;7.03;;;2.13;;
75628;SDS011;64213;46.452;16.994;2023-12-22T07:22:25;10.27;;;3.20;;
75628;SDS011;64213;46.452;16.994;2023-12-22T07:25:28;8.55;;;2.47;;
75628;SDS011;64213;46.452;16.994;2023-12-22T07:28:31;12.02;;;4.32;;
75628;SDS011;64213;46.452;16.994;2023-12-22T07:31:35;11.63;;;3.30;;
75628;SDS011;64213;46.452;16.994;2023-12-22T07:34:37;8.40;;;2.73;;
75628;SDS011;64213;46.452;16.994;2023-12-22T07:37:40;9.68;;;2.42;;
75628;SDS011;64213;46.452;16.994;2023-12-22T07:40:42;10.63;;;3.42;;
75628;SDS011;64213;46.452;16.994;2023-12-22T07:43:44;8.07;;;2.75;;
75628;SDS011;64213;46.452;16.994;2023-12-22T07:46:55;12.73;;;2.90;;
75628;SDS011;64213;46.452;16.994;2023-12-22T07:49:59;10.13;;;3.37;;
75628;SDS011;64213;46.452;16.994;2023-12-22T07:53:05;10.63;;;3.25;;
75628;SDS011;64213;46.452;16.994;2023-12-22T07:56:09;14.07;;;4.32;;
75628;SDS011;64213;46.452;16.994;2023-12-22T07:59:13;8.68;;;2.40;;
75628;SDS011;64213;46.452;16.994;2023-12-22T08:02:31;7.43;;;1.80;;
75628;SDS011;64213;46.452;16.994;2023-12-22T08:05:33;3.67;;;0.70;;
75628;SDS011;64213;46.452;16.994;2023-12-22T08:08:36;12.90;;;2.97;;
75628;SDS011;64213;46.452;16.994;2023-12-22T08:11:38;9.15;;;2.67;;
75628;SDS011;64213;46.452;16.994;2023-12-22T08:14:41;9.55;;;2.45;;
75628;SDS011;64213;46.452;16.994;2023-12-22T08:17:47;10.87;;;2.87;;
75628;SDS011;64213;46.452;16.994;2023-12-22T08:20:52;9.07;;;2.30;;
75628;SDS011;64213;46.452;16.994;2023-12-22T08:23:55;8.68;;;2.37;;
75628;SDS011;64213;46.452;16.994;2023-12-22T08:26:57;5.35;;;1.25;;
75628;SDS011;64213;46.452;16.994;2023-12-22T08:30:00;8.82;;;1.80;;
75628;SDS011;64213;46.452;16.994;2023-12-22T08:33:02;7.10;;;1.37;;
75628;SDS011;64213;46.452;16.994;2023-12-22T08:36:05;6.43;;;1.10;;
75628;SDS011;64213;46.452;16.994;2023-12-22T08:39:08;2.78;;;0.40;;
75628;SDS011;64213;46.452;16.994;2023-12-22T08:42:10;5.68;;;0.90;;
75628;SDS011;64213;46.452;16.994;2023-12-22T08:45:14;4.57;;;0.70;;
75628;SDS011;64213;46.452;16.994;2023-12-22T08:48:16;6.00;;;0.90;;
75628;SDS011;64213;46.452;16.994;2023-12-22T08:51:18;5.50;;;0.97;;
75628;SDS011;64213;46.452;16.994;2023-12-22T08:54:21;4.45;;;0.95;;
75628;SDS011;64213;46.452;16.994;2023-12-22T08:57:23;4.95;;;0.77;;
75628;SDS011;64213;46.452;16.994;2023-12-22T09:00:26;5.05;;;0.90;;
75628;SDS011;64213;46.452;16.994;2023-12-22T09:03:28;5.90;;;0.80;;
75628;SDS011;64213;46.452;16.994;2023-12-22T09:06:32;4.73;;;0.70;;
75628;SDS011;64213;46.452;16.994;2023-12-22T09:09:35;5.00;;;0.80;;
75628;SDS011;64213;46.452;16.994;2023-12-22T09:12:37;8.35;;;1.87;;
75628;SDS011;64213;46.452;16.994;2023-12-22T09:15:39;7.35;;;1.90;;
75628;SDS011;64213;46.452;16.994;2023-12-22T09:18:43;7.77;;;2.30;;
75628;SDS011;64213;46.452;16.994;2023-12-22T09:21:47;7.17;;;1.70;;
75628;SDS011;64213;46.452;16.994;2023-12-22T09:24:49;7.62;;;2.30;;
75628;SDS011;64213;46.452;16.994;2023-12-22T09:27:52;8.13;;;2.40;;
75628;SDS011;64213;46.452;16.994;2023-12-22T09:30:54;9.43;;;2.50;;
75628;SDS011;64213;46.452;16.994;2023-12-22T09:33:57;9.00;;;2.47;;
75628;SDS011;64213;46.452;16.994;2023-12-22T09:37:00;11.57;;;3.30;;
75628;SDS011;64213;46.452;16.994;2023-12-22T09:40:02;9.52;;;3.30;;
75628;SDS011;64213;46.452;16.994;2023-12-22T09:43:05;12.00;;;3.40;;
75628;SDS011;64213;46.452;16.994;2023-12-22T09:46:09;11.32;;;3.35;;
75628;SDS011;64213;46.452;16.994;2023-12-22T09:49:13;9.27;;;2.90;;
75628;SDS011;64213;46.452;16.994;2023-12-22T09:52:16;9.77;;;2.73;;
75628;SDS011;64213;46.452;16.994;2023-12-22T09:55:23;9.65;;;2.83;;
75628;SDS011;64213;46.452;16.994;2023-12-22T09:58:25;9.48;;;2.87;;
75628;SDS011;64213;46.452;16.994;2023-12-22T10:01:28;19.08;;;12.80;;
75628;SDS011;64213;46.452;16.994;2023-12-22T10:04:31;11.30;;;3.10;;
75628;SDS011;64213;46.452;16.994;2023-12-22T10:07:34;12.17;;;3.27;;
75628;SDS011;64213;46.452;16.994;2023-12-22T10:10:38;9.90;;;3.15;;
75628;SDS011;64213;46.452;16.994;2023-12-22T10:13:48;10.65;;;4.07;;
75628;SDS011;64213;46.452;16.994;2023-12-22T10:16:52;12.15;;;4.05;;
75628;SDS011;64213;46.452;16.994;2023-12-22T10:19:54;11.97;;;4.27;;
75628;SDS011;64213;46.452;16.994;2023-12-22T10:22:57;12.47;;;4.53;;
75628;SDS011;64213;46.452;16.994;2023-12-22T10:25:59;10.05;;;3.37;;
75628;SDS011;64213;46.452;16.994;2023-12-22T10:29:02;10.75;;;3.47;;
75628;SDS011;64213;46.452;16.994;2023-12-22T10:32:05;10.73;;;3.33;;
75628;SDS011;64213;46.452;16.994;2023-12-22T10:35:09;11.20;;;3.90;;
75628;SDS011;64213;46.452;16.994;2023-12-22T10:38:12;11.80;;;4.57;;
75628;SDS011;64213;46.452;16.994;2023-12-22T10:41:14;12.27;;;5.40;;
75628;SDS011;64213;46.452;16.994;2023-12-22T10:44:17;14.95;;;5.05;;
75628;SDS011;64213;46.452;16.994;2023-12-22T10:47:19;11.63;;;4.05;;
75628;SDS011;64213;46.452;16.994;2023-12-22T10:50:23;11.43;;;4.47;;
75628;SDS011;64213;46.452;16.994;2023-12-22T10:53:26;14.40;;;4.83;;
75628;SDS011;64213;46.452;16.994;2023-12-22T10:56:28;13.15;;;4.80;;
75628;SDS011;64213;46.452;16.994;2023-12-22T10:59:31;12.85;;;4.90;;
75628;SDS011;64213;46.452;16.994;2023-12-22T11:02:41;15.55;;;5.22;;
75628;SDS011;64213;46.452;16.994;2023-12-22T11:05:45;14.73;;;5.40;;
75628;SDS011;64213;46.452;16.994;2023-12-22T11:08:49;15.70;;;5.77;;
75628;SDS011;64213;46.452;16.994;2023-12-22T11:11:55;13.20;;;4.82;;
75628;SDS011;64213;46.452;16.994;2023-12-22T11:14:59;11.93;;;4.25;;
75628;SDS011;64213;46.452;16.994;2023-12-22T11:18:02;14.48;;;5.18;;
75628;SDS011;64213;46.452;16.994;2023-12-22T11:21:07;14.07;;;5.17;;
75628;SDS011;64213;46.452;16.994;2023-12-22T11:24:12;14.23;;;5.43;;
75628;SDS011;64213;46.452;16.994;2023-12-22T11:27:19;19.02;;;7.15;;
75628;SDS011;64213;46.452;16.994;2023-12-22T11:30:22;17.00;;;5.93;;
75628;SDS011;64213;46.452;16.994;2023-12-22T11:33:27;12.43;;;3.83;;
75628;SDS011;64213;46.452;16.994;2023-12-22T11:36:31;11.97;;;3.43;;
75628;SDS011;64213;46.452;16.994;2023-12-22T11:39:34;12.40;;;4.10;;
75628;SDS011;64213;46.452;16.994;2023-12-22T11:42:38;7.70;;;2.25;;
75628;SDS011;64213;46.452;16.994;2023-12-22T11:45:49;10.45;;;2.97;;
75628;SDS011;64213;46.452;16.994;2023-12-22T11:48:52;8.98;;;2.62;;
75628;SDS011;64213;46.452;16.994;2023-12-22T11:51:55;7.43;;;1.80;;
75628;SDS011;64213;46.452;16.994;2023-12-22T11:55:00;5.50;;;1.20;;
75628;SDS011;64213;46.452;16.994;2023-12-22T12:01:43;7.18;;;1.75;;
75628;SDS011;64213;46.452;16.994;2023-12-22T12:04:47;6.82;;;1.20;;
75628;SDS011;64213;46.452;16.994;2023-12-22T12:07:50;5.03;;;0.93;;
75628;SDS011;64213;46.452;16.994;2023-12-22T12:10:53;6.47;;;1.37;;
75628;SDS011;64213;46.452;16.994;2023-12-22T12:13:58;7.20;;;1.67;;
75628;SDS011;64213;46.452;16.994;2023-12-22T12:17:15;7.40;;;1.50;;
75628;SDS011;64213;46.452;16.994;2023-12-22T12:20:20;5.90;;;1.27;;
75628;SDS011;64213;46.452;16.994;2023-12-22T12:23:24;6.73;;;1.40;;
75628;SDS011;64213;46.452;16.994;2023-12-22T12:26:28;5.90;;;1.00;;
75628;SDS011;64213;46.452;16.994;2023-12-22T12:29:32;6.43;;;1.60;;
75628;SDS011;64213;46.452;16.994;2023-12-22T12:32:35;7.78;;;1.10;;
75628;SDS011;64213;46.452;16.994;2023-12-22T12:35:38;5.87;;;1.20;;
75628;SDS011;64213;46.452;16.994;2023-12-22T12:38:54;7.63;;;1.80;;
75628;SDS011;64213;46.452;16.994;2023-12-22T12:42:00;7.57;;;1.87;;
75628;SDS011;64213;46.452;16.994;2023-12-22T12:45:07;11.77;;;3.12;;
75628;SDS011;64213;46.452;16.994;2023-12-22T12:48:10;12.88;;;3.65;;
75628;SDS011;64213;46.452;16.994;2023-12-22T12:51:12;12.95;;;4.40;;
75628;SDS011;64213;46.452;16.994;2023-12-22T12:54:15;9.03;;;2.83;;
75628;SDS011;64213;46.452;16.994;2023-12-22T12:57:17;14.17;;;6.40;;
75628;SDS011;64213;46.452;16.994;2023-12-22T13:00:24;14.05;;;4.95;;
75628;SDS011;64213;46.452;16.994;2023-12-22T13:03:30;11.12;;;4.12;;
75628;SDS011;64213;46.452;16.994;2023-12-22T13:06:33;10.13;;;3.58;;
75628;SDS011;64213;46.452;16.994;2023-12-22T13:09:35;11.30;;;3.37;;
75628;SDS011;64213;46.452;16.994;2023-12-22T13:12:38;9.27;;;2.93;;
75628;SDS011;64213;46.452;16.994;2023-12-22T13:15:40;9.40;;;3.00;;
75628;SDS011;64213;46.452;16.994;2023-12-22T13:18:43;9.73;;;3.10;;
75628;SDS011;64213;46.452;16.994;2023-12-22T13:21:46;12.73;;;5.12;;
75628;SDS011;64213;46.452;16.994;2023-12-22T13:24:56;11.03;;;2.90;;
75628;SDS011;64213;46.452;16.994;2023-12-22T13:28:01;8.60;;;2.57;;
75628;SDS011;64213;46.452;16.994;2023-12-22T13:31:09;8.98;;;3.05;;
75628;SDS011;64213;46.452;16.994;2023-12-22T13:34:16;9.13;;;3.03;;
75628;SDS011;64213;46.452;16.994;2023-12-22T13:37:18;9.05;;;2.67;;
75628;SDS011;64213;46.452;16.994;2023-12-22T13:40:21;13.73;;;5.33;;
75628;SDS011;64213;46.452;16.994;2023-12-22T13:43:27;19.30;;;8.17;;
75628;SDS011;64213;46.452;16.994;2023-12-22T13:46:30;18.52;;;6.90;;
75628;SDS011;64213;46.452;16.994;2023-12-22T13:49:33;17.15;;;6.60;;
75628;SDS011;64213;46.452;16.994;2023-12-22T13:52:36;13.38;;;5.20;;
75628;SDS011;64213;46.452;16.994;2023-12-22T13:55:38;9.17;;;2.60;;
75628;SDS011;64213;46.452;16.994;2023-12-22T13:58:45;7.67;;;1.93;;
75628;SDS011;64213;46.452;16.994;2023-12-22T14:01:48;6.00;;;1.30;;
75628;SDS011;64213;46.452;16.994;2023-12-22T14:04:51;5.30;;;1.10;;
75628;SDS011;64213;46.452;16.994;2023-12-22T14:07:54;4.50;;;0.70;;
75628;SDS011;64213;46.452;16.994;2023-12-22T14:10:57;2.60;;;0.40;;
75628;SDS011;64213;46.452;16.994;2023-12-22T14:13:59;3.67;;;0.33;;
75628;SDS011;64213;46.452;16.994;2023-12-22T14:17:02;1.12;;;0.20;;
75628;SDS011;64213;46.452;16.994;2023-12-22T14:20:04;2.78;;;0.40;;
75628;SDS011;64213;46.452;16.994;2023-12-22T14:23:09;1.73;;;0.20;;
75628;SDS011;64213;46.452;16.994;2023-12-22T14:26:15;2.30;;;0.40;;
75628;SDS011;64213;46.452;16.994;2023-12-22T14:29:18;1.10;;;0.13;;
75628;SDS011;64213;46.452;16.994;2023-12-22T14:32:21;1.75;;;0.20;;
75628;SDS011;64213;46.452;16.994;2023-12-22T14:35:24;1.95;;;0.35;;
75628;SDS011;64213;46.452;16.994;2023-12-22T14:38:27;2.12;;;0.32;;
75628;SDS011;64213;46.452;16.994;2023-12-22T14:41:29;0.90;;;0.20;;
75628;SDS011;64213;46.452;16.994;2023-12-22T14:44:31;1.87;;;0.20;;
75628;SDS011;64213;46.452;16.994;2023-12-22T14:47:34;2.15;;;0.30;;
75628;SDS011;64213;46.452;16.994;2023-12-22T14:50:37;0.45;;;0.10;;
75628;SDS011;64213;46.452;16.994;2023-12-22T14:53:39;1.10;;;0.20;;
75628;SDS011;64213;46.452;16.994;2023-12-22T14:56:42;2.07;;;0.30;;
75628;SDS011;64213;46.452;16.994;2023-12-22T14:59:44;1.23;;;0.20;;
75628;SDS011;64213;46.452;16.994;2023-12-22T15:02:47;2.28;;;0.30;;
75628;SDS011;64213;46.452;16.994;2023-12-22T15:05:50;1.23;;;0.20;;
75628;SDS011;64213;46.452;16.994;2023-12-22T15:08:54;1.23;;;0.20;;
75628;SDS011;64213;46.452;16.994;2023-12-22T15:11:56;1.47;;;0.20;;
75628;SDS011;64213;46.452;16.994;2023-12-22T15:14:59;1.03;;;0.20;;
75628;SDS011;64213;46.452;16.994;2023-12-22T15:18:01;1.25;;;0.20;;
75628;SDS011;64213;46.452;16.994;2023-12-22T15:21:19;1.35;;;0.20;;
75628;SDS011;64213;46.452;16.994;2023-12-22T15:24:23;3.28;;;0.47;;
75628;SDS011;64213;46.452;16.994;2023-12-22T15:27:26;3.03;;;0.20;;
75628;SDS011;64213;46.452;16.994;2023-12-22T15:30:31;1.23;;;0.23;;
75628;SDS011;64213;46.452;16.994;2023-12-22T15:33:35;3.70;;;0.65;;
75628;SDS011;64213;46.452;16.994;2023-12-22T15:36:40;2.53;;;0.30;;
75628;SDS011;64213;46.452;16.994;2023-12-22T15:39:45;2.62;;;0.55;;
75628;SDS011;64213;46.452;16.994;2023-12-22T15:42:50;1.83;;;0.23;;
75628;SDS011;64213;46.452;16.994;2023-12-22T15:45:54;3.87;;;0.63;;
75628;SDS011;64213;46.452;16.994;2023-12-22T15:48:59;4.18;;;0.70;;
75628;SDS011;64213;46.452;16.994;2023-12-22T15:52:04;1.87;;;0.30;;
75628;SDS011;64213;46.452;16.994;2023-12-22T15:55:08;3.08;;;0.40;;
75628;SDS011;64213;46.452;16.994;2023-12-22T15:58:12;2.77;;;0.37;;
75628;SDS011;64213;46.452;16.994;2023-12-22T16:01:17;3.33;;;0.50;;
75628;SDS011;64213;46.452;16.994;2023-12-22T16:04:21;2.75;;;0.40;;
75628;SDS011;64213;46.452;16.994;2023-12-22T16:07:26;3.20;;;0.40;;
75628;SDS011;64213;46.452;16.994;2023-12-22T16:10:30;2.72;;;0.50;;
75628;SDS011;64213;46.452;16.994;2023-12-22T16:13:34;1.57;;;0.20;;
75628;SDS011;64213;46.452;16.994;2023-12-22T16:16:38;3.60;;;0.53;;
75628;SDS011;64213;46.452;16.994;2023-12-22T16:19:43;4.20;;;0.57;;
75628;SDS011;64213;46.452;16.994;2023-12-22T16:22:48;4.53;;;0.65;;
75628;SDS011;64213;46.452;16.994;2023-12-22T16:25:54;4.70;;;0.50;;
75628;SDS011;64213;46.452;16.994;2023-12-22T16:28:58;4.53;;;0.90;;
75628;SDS011;64213;46.452;16.994;2023-12-22T16:32:03;4.60;;;0.70;;
75628;SDS011;64213;46.452;16.994;2023-12-22T16:35:09;5.55;;;1.02;;
75628;SDS011;64213;46.452;16.994;2023-12-22T16:38:15;5.32;;;0.93;;
75628;SDS011;64213;46.452;16.994;2023-12-22T16:41:19;5.60;;;0.80;;
75628;SDS011;64213;46.452;16.994;2023-12-22T16:44:24;3.13;;;0.53;;
75628;SDS011;64213;46.452;16.994;2023-12-22T16:47:28;3.90;;;0.60;;
75628;SDS011;64213;46.452;16.994;2023-12-22T16:50:34;5.07;;;1.20;;
75628;SDS011;64213;46.452;16.994;2023-12-22T16:53:38;5.80;;;1.33;;
75628;SDS011;64213;46.452;16.994;2023-12-22T16:56:43;7.25;;;1.40;;
75628;SDS011;64213;46.452;16.994;2023-12-22T16:59:46;5.13;;;0.90;;
75628;SDS011;64213;46.452;16.994;2023-12-22T17:02:50;5.77;;;0.90;;
75628;SDS011;64213;46.452;16.994;2023-12-22T17:05:55;4.90;;;0.70;;
75628;SDS011;64213;46.452;16.994;2023-12-22T17:08:59;4.07;;;0.70;;
75628;SDS011;64213;46.452;16.994;2023-12-22T17:12:04;3.87;;;0.70;;
75628;SDS011;64213;46.452;16.994;2023-12-22T17:15:08;4.37;;;0.70;;
75628;SDS011;64213;46.452;16.994;2023-12-22T17:18:14;4.47;;;0.80;;
75628;SDS011;64213;46.452;16.994;2023-12-22T17:21:18;4.65;;;0.95;;
75628;SDS011;64213;46.452;16.994;2023-12-22T17:24:22;4.37;;;0.88;;
75628;SDS011;64213;46.452;16.994;2023-12-22T17:27:26;6.75;;;1.45;;
75628;SDS011;64213;46.452;16.994;2023-12-22T17:30:30;6.07;;;1.10;;
75628;SDS011;64213;46.452;16.994;2023-12-22T17:33:34;5.40;;;1.17;;
75628;SDS011;64213;46.452;16.994;2023-12-22T17:36:41;6.03;;;1.20;;
75628;SDS011;64213;46.452;16.994;2023-12-22T17:39:46;8.75;;;2.97;;
75628;SDS011;64213;46.452;16.994;2023-12-22T17:42:50;7.20;;;1.70;;
75628;SDS011;64213;46.452;16.994;2023-12-22T17:45:54;8.10;;;2.03;;
75628;SDS011;64213;46.452;16.994;2023-12-22T17:48:58;8.23;;;1.60;;
75628;SDS011;64213;46.452;16.994;2023-12-22T17:52:02;4.12;;;1.00;;
75628;SDS011;64213;46.452;16.994;2023-12-22T17:55:08;7.95;;;2.25;;
75628;SDS011;64213;46.452;16.994;2023-12-22T17:58:13;9.10;;;2.47;;
75628;SDS011;64213;46.452;16.994;2023-12-22T18:01:17;6.83;;;1.80;;
75628;SDS011;64213;46.452;16.994;2023-12-22T18:04:22;8.63;;;2.47;;
75628;SDS011;64213;46.452;16.994;2023-12-22T18:07:28;9.63;;;2.95;;
75628;SDS011;64213;46.452;16.994;2023-12-22T18:10:33;10.68;;;2.87;;
75628;SDS011;64213;46.452;16.994;2023-12-22T18:13:37;14.20;;;4.68;;